Time;durP1;ratioP1;P1;durP2;ratioP2;P2;SDS_P1;SDS_P2;PMS_P1;PMS_P2;Temp;Humidity;BMP_temperature;BMP_pressure;BME280_temperature;BME280_humidity;BME280_pressure;Samples;Min_cycle;Max_cycle;Signal;HPM_P1;HPM_P2
2023/12/26 00:03:21;;;;;;;;;;;;;;;15.89;37.17;95379.94;10477473;28;2104;-66
2023/12/26 00:08:22;;;;;;;;;;;;;;;15.89;37.17;95366.88;10474473;28;1871;-63
2023/12/26 00:13:22;;;;;;;;;;;;;;;15.88;37.27;95362.69;10479110;28;5108;-65
2023/12/26 00:18:22;;;;;;;;;;;;;;;15.88;37.18;95357.47;10492738;28;1963;-67
2023/12/26 00:23:23;;;;;;;;;;;;;;;15.87;37.13;95355.88;10478940;28;1975;-66
2023/12/26 00:28:23;;;;;;;;;;;;;;;15.87;37.19;95358.50;10479444;28;1955;-67
2023/12/26 00:33:23;;;;;;;;;;;;;;;15.87;37.13;95355.88;10480415;28;1996;-66
2023/12/26 00:38:23;;;;;;;;;;;;;;;15.87;37.05;95342.81;10480591;28;1988;-67
2023/12/26 00:43:24;;;;;;;;;;;;;;;15.86;37.12;95346.47;10474428;28;1910;-65
2023/12/26 00:48:24;;;;;;;;;;;;;;;15.86;37.21;95350.91;10478690;28;2291;-65
2023/12/26 00:53:24;;;;;;;;;;;;;;;15.86;37.15;95343.84;10473459;28;1998;-67
2023/12/26 00:58:24;;;;;;;;;;;;;;;15.86;37.12;95345.69;10487152;28;1934;-67
2023/12/26 01:03:25;;;;;;;;;;;;;;;15.85;37.18;95344.09;10488294;28;1975;-66
2023/12/26 01:08:25;;;;;;;;;;;;;;;15.86;37.16;95338.63;10487741;28;1880;-67
2023/12/26 01:13:26;;;;;;;;;;;;;;;15.84;37.19;95345.94;10474502;28;5035;-66
2023/12/26 01:18:26;;;;;;;;;;;;;;;15.85;37.11;95347.50;10480895;28;2062;-67
2023/12/26 01:23:26;;;;;;;;;;;;;;;15.84;37.10;95356.41;10458643;28;1996;-66
2023/12/26 01:28:29;;;;;;;;;;;;;;;15.83;37.15;95349.56;10477918;28;1910;-68
2023/12/26 01:33:29;;;;;;;;;;;;;;;15.83;37.14;95349.56;10474754;28;1963;-66
2023/12/26 01:38:30;;;;;;;;;;;;;;;15.85;37.06;95351.94;10481059;28;2769;-67
2023/12/26 01:43:30;;;;;;;;;;;;;;;15.86;36.98;95356.13;10490792;28;2497;-66
2023/12/26 01:48:30;;;;;;;;;;;;;;;15.84;37.02;95356.41;10482706;28;2062;-66
2023/12/26 01:53:30;;;;;;;;;;;;;;;15.83;37.21;95359.25;10460963;28;2084;-66
2023/12/26 01:58:31;;;;;;;;;;;;;;;15.82;37.05;95353.25;10480762;28;1976;-66
2023/12/26 02:03:32;;;;;;;;;;;;;;;15.83;37.08;95346.16;10473919;28;2101;-66
2023/12/26 02:08:33;;;;;;;;;;;;;;;15.81;37.07;95343.81;10449443;28;2079;-66
2023/12/26 02:13:33;;;;;;;;;;;;;;;15.81;37.11;95343.03;10469455;28;5054;-66
2023/12/26 02:18:33;;;;;;;;;;;;;;;15.79;37.16;95334.66;10468146;28;1971;-66
2023/12/26 02:23:33;;;;;;;;;;;;;;;15.80;37.17;95337.03;10474447;28;2042;-66
2023/12/26 02:28:34;;;;;;;;;;;;;;;15.82;37.08;95327.13;10456464;28;2470;-66
2023/12/26 02:33:37;;;;;;;;;;;;;;;15.78;37.24;95330.47;10454908;28;2001;-66
2023/12/26 02:38:37;;;;;;;;;;;;;;;15.79;37.07;95338.06;10478875;28;2276;-66
2023/12/26 02:43:38;;;;;;;;;;;;;;;15.81;37.08;95329.97;10479002;28;1988;-66
2023/12/26 02:48:38;;;;;;;;;;;;;;;15.78;37.16;95320.81;10473658;28;1869;-66
2023/12/26 02:53:38;;;;;;;;;;;;;;;15.77;37.21;95319.22;10472808;28;2101;-66
2023/12/26 02:58:39;;;;;;;;;;;;;;;15.77;37.19;95319.22;10477327;28;2026;-67
2023/12/26 03:03:39;;;;;;;;;;;;;;;15.77;37.21;95323.66;10469347;28;2008;-66
2023/12/26 03:08:39;;;;;;;;;;;;;;;15.77;37.11;95321.84;10483122;28;2062;-66
2023/12/26 03:13:39;;;;;;;;;;;;;;;15.76;37.27;95319.50;10461559;28;5027;-65
2023/12/26 03:18:39;;;;;;;;;;;;;;;15.76;37.14;95317.69;10469734;28;1960;-65
2023/12/26 03:23:40;;;;;;;;;;;;;;;15.75;37.19;95316.09;10473653;28;2069;-66
2023/12/26 03:28:40;;;;;;;;;;;;;;;15.76;37.10;95322.09;10480440;28;2050;-66
2023/12/26 03:33:40;;;;;;;;;;;;;;;15.75;37.16;95315.28;10471844;28;1990;-66
2023/12/26 03:38:43;;;;;;;;;;;;;;;15.73;37.24;95323.38;10478379;28;2195;-66
2023/12/26 03:43:43;;;;;;;;;;;;;;;15.74;37.11;95324.97;10489758;28;1987;-65
2023/12/26 03:48:44;;;;;;;;;;;;;;;15.74;37.09;95327.59;10470416;28;1987;-66
2023/12/26 03:53:44;;;;;;;;;;;;;;;15.73;37.19;95336.47;10477761;28;1864;-66
2023/12/26 04:04:23;;;;;;;;;;;;;;;15.72;37.12;95332.28;10482047;28;1984;-66
2023/12/26 04:09:23;;;;;;;;;;;;;;;15.73;37.25;95325.22;10486782;28;1985;-66
2023/12/26 04:14:23;;;;;;;;;;;;;;;15.73;37.09;95328.63;10466268;28;5058;-66
2023/12/26 04:19:25;;;;;;;;;;;;;;;15.73;37.13;95325.22;10474124;28;2213;-67
2023/12/26 04:24:25;;;;;;;;;;;;;;;15.71;37.14;95325.47;10484810;28;1962;-66
2023/12/26 04:29:25;;;;;;;;;;;;;;;15.70;37.18;95318.69;10476161;28;2026;-66
2023/12/26 04:34:26;;;;;;;;;;;;;;;15.71;37.17;95324.69;10480216;28;2323;-65
2023/12/26 04:39:26;;;;;;;;;;;;;;;15.71;37.17;95325.47;10481360;28;2403;-66
2023/12/26 04:44:26;;;;;;;;;;;;;;;15.70;37.15;95329.13;10476938;28;1965;-66
2023/12/26 04:49:26;;;;;;;;;;;;;;;15.70;37.08;95344.03;10467346;28;1903;-66
2023/12/26 04:54:27;;;;;;;;;;;;;;;15.69;37.12;95369.34;10476599;28;2381;-66
2023/12/26 04:59:27;;;;;;;;;;;;;;;15.69;37.05;95374.59;10470081;28;1955;-66
2023/12/26 05:04:27;;;;;;;;;;;;;;;15.68;37.02;95380.88;10481794;28;2015;-65
2023/12/26 05:09:27;;;;;;;;;;;;;;;15.69;36.92;95381.63;10481891;28;2069;-66
2023/12/26 05:14:28;;;;;;;;;;;;;;;15.68;36.98;95383.47;10489977;28;5144;-66
2023/12/26 05:19:28;;;;;;;;;;;;;;;15.67;36.93;95397.56;10466744;28;1927;-66
2023/12/26 05:24:28;;;;;;;;;;;;;;;15.68;36.93;95406.19;10484875;28;2029;-66
2023/12/26 05:29:29;;;;;;;;;;;;;;;15.67;37.08;95413.25;10485750;28;2074;-66
2023/12/26 05:34:29;;;;;;;;;;;;;;;15.67;36.92;95413.25;10482807;28;2208;-66
2023/12/26 05:39:29;;;;;;;;;;;;;;;15.67;36.86;95420.28;10475632;28;2003;-65
2023/12/26 05:44:29;;;;;;;;;;;;;;;15.67;36.96;95425.50;10482626;28;2102;-65
2023/12/26 05:49:30;;;;;;;;;;;;;;;15.66;36.94;95432.56;10485843;28;2511;-65
2023/12/26 05:54:30;;;;;;;;;;;;;;;15.65;36.87;95436.22;10482962;28;2026;-65
2023/12/26 05:59:30;;;;;;;;;;;;;;;15.65;36.93;95457.13;10470938;28;1923;-65
2023/12/26 06:04:30;;;;;;;;;;;;;;;15.66;36.97;95466.50;10485283;28;1923;-65
2023/12/26 06:09:31;;;;;;;;;;;;;;;15.65;37.05;95480.63;10467351;28;1988;-66
2023/12/26 06:14:32;;;;;;;;;;;;;;;15.65;36.91;95477.22;10469739;28;5062;-65
2023/12/26 06:19:32;;;;;;;;;;;;;;;15.64;36.86;95479.03;10474092;28;1933;-65
2023/12/26 06:24:33;;;;;;;;;;;;;;;15.64;36.88;95499.94;10464678;28;1996;-65
2023/12/26 06:29:33;;;;;;;;;;;;;;;15.64;36.99;95502.56;10485757;28;1974;-65
2023/12/26 06:34:33;;;;;;;;;;;;;;;15.64;37.01;95502.56;10486893;28;1897;-66
2023/12/26 06:39:35;;;;;;;;;;;;;;;15.65;36.89;95514.59;10458627;28;1938;-66
2023/12/26 06:44:35;;;;;;;;;;;;;;;15.63;36.87;95514.06;10480995;28;1977;-65
2023/12/26 06:49:35;;;;;;;;;;;;;;;15.63;36.82;95521.91;10483119;28;1922;-65
2023/12/26 06:54:36;;;;;;;;;;;;;;;15.65;37.02;95542.53;10467281;28;1874;-66
2023/12/26 06:59:38;;;;;;;;;;;;;;;15.63;36.98;95555.88;10476254;28;1891;-65
2023/12/26 07:04:45;;;;;;;;;;;;;;;15.64;37.00;95565.25;10456651;28;2031;-65
2023/12/26 07:09:45;;;;;;;;;;;;;;;15.63;36.95;95570.75;10482225;28;2144;-66
2023/12/26 07:14:45;;;;;;;;;;;;;;;15.63;36.96;95575.97;10485419;28;1874;-66
2023/12/26 07:19:46;;;;;;;;;;;;;;;15.63;36.96;95589.03;10484960;28;2030;-65
2023/12/26 07:24:46;;;;;;;;;;;;;;;15.64;36.85;95606.31;10480793;28;2043;-66
2023/12/26 07:29:46;;;;;;;;;;;;;;;15.63;36.86;95620.38;10487904;28;1910;-65
2023/12/26 07:34:47;;;;;;;;;;;;;;;15.63;36.94;95625.63;10474816;28;2099;-65
2023/12/26 07:39:47;;;;;;;;;;;;;;;15.62;36.80;95630.03;10480830;28;1919;-65
2023/12/26 07:44:47;;;;;;;;;;;;;;;15.62;36.89;95639.72;10479920;28;2074;-65
2023/12/26 07:49:47;;;;;;;;;;;;;;;15.60;36.92;95639.94;10471709;28;1967;-66
2023/12/26 07:54:48;;;;;;;;;;;;;;;15.60;36.87;95653.00;10480306;28;1919;-65
2023/12/26 07:59:48;;;;;;;;;;;;;;;15.61;36.84;95667.66;10483357;28;1884;-66
2023/12/26 08:04:48;;;;;;;;;;;;;;;15.60;36.88;95666.06;10479597;28;2077;-65
2023/12/26 08:09:48;;;;;;;;;;;;;;;15.60;37.21;95665.31;10473636;28;2062;-66
2023/12/26 08:20:26;;;;;;;;;;;;;;;15.60;36.99;95658.25;10444085;28;3992;-65
2023/12/26 08:25:27;;;;;;;;;;;;;;;15.59;36.96;95654.06;10462603;28;2156;-66
2023/12/26 08:30:27;;;;;;;;;;;;;;;15.60;36.96;95678.38;10471382;28;1995;-66
2023/12/26 08:35:28;;;;;;;;;;;;;;;15.60;36.79;95680.97;10467591;28;1942;-66
2023/12/26 08:40:28;;;;;;;;;;;;;;;15.61;37.08;95680.72;10467437;28;2381;-66
2023/12/26 08:45:30;;;;;;;;;;;;;;;15.61;36.95;95683.34;10466984;28;1910;-65
2023/12/26 08:50:30;;;;;;;;;;;;;;;15.61;37.03;95691.19;10464030;28;1958;-65
2023/12/26 08:55:31;;;;;;;;;;;;;;;15.62;37.00;95692.75;10466578;28;1941;-65
2023/12/26 09:00:31;;;;;;;;;;;;;;;15.61;37.08;95696.41;10463143;28;2003;-66
2023/12/26 09:05:31;;;;;;;;;;;;;;;15.60;37.15;95700.03;10467388;28;2116;-65
2023/12/26 09:10:33;;;;;;;;;;;;;;;15.60;37.08;95705.25;10465863;28;2002;-65
2023/12/26 09:15:34;;;;;;;;;;;;;;;15.61;37.19;95706.88;10461206;28;5057;-66
2023/12/26 09:20:35;;;;;;;;;;;;;;;15.60;37.26;95717.56;10460685;28;2062;-64
2023/12/26 09:25:35;;;;;;;;;;;;;;;15.61;37.23;95711.28;10463467;28;1898;-65
2023/12/26 09:30:35;;;;;;;;;;;;;;;15.58;37.26;95696.88;10460495;28;2064;-65
2023/12/26 09:35:36;;;;;;;;;;;;;;;15.59;37.39;95693.25;10461119;28;2073;-65
2023/12/26 09:40:38;;;;;;;;;;;;;;;15.58;37.29;95709.94;10461479;28;1871;-66
2023/12/26 09:45:39;;;;;;;;;;;;;;;15.59;37.26;95711.53;10463396;28;1980;-65
2023/12/26 09:50:39;;;;;;;;;;;;;;;15.60;37.35;95707.88;10468572;28;1943;-66
2023/12/26 09:55:39;;;;;;;;;;;;;;;15.59;37.49;95714.16;10463989;28;2201;-64
2023/12/26 10:00:40;;;;;;;;;;;;;;;15.60;37.47;95717.56;10464095;28;1943;-65
2023/12/26 10:05:40;;;;;;;;;;;;;;;15.60;37.35;95720.94;10464806;28;2022;-64
2023/12/26 10:10:40;;;;;;;;;;;;;;;15.58;37.40;95717.78;10447965;28;1977;-65
2023/12/26 10:15:41;;;;;;;;;;;;;;;15.58;37.34;95704.72;10461730;28;5101;-64
2023/12/26 10:20:41;;;;;;;;;;;;;;;15.58;37.35;95709.94;10457703;28;2125;-66
2023/12/26 10:25:42;;;;;;;;;;;;;;;15.60;37.40;95720.19;10460599;28;1946;-66
2023/12/26 10:30:42;;;;;;;;;;;;;;;15.57;37.41;95711.00;10464043;28;2020;-67
2023/12/26 10:35:43;;;;;;;;;;;;;;;15.58;37.32;95719.63;10459031;28;1925;-66
2023/12/26 10:40:43;;;;;;;;;;;;;;;15.57;37.30;95721.44;10457272;28;1998;-65
2023/12/26 10:45:43;;;;;;;;;;;;;;;15.57;37.42;95726.66;10452811;28;1977;-66
2023/12/26 10:50:43;;;;;;;;;;;;;;;15.57;37.35;95729.28;10433581;28;2263;-67
2023/12/26 10:55:44;;;;;;;;;;;;;;;15.57;37.41;95734.50;10444475;28;1914;-67
2023/12/26 11:00:44;;;;;;;;;;;;;;;15.58;37.35;95740.53;10459497;28;1997;-68
2023/12/26 11:05:45;;;;;;;;;;;;;;;15.56;37.43;95743.38;10449630;28;2025;-66
2023/12/26 11:10:45;;;;;;;;;;;;;;;15.56;37.22;95729.53;10457023;28;2160;-67
2023/12/26 11:15:45;;;;;;;;;;;;;;;15.57;37.43;95739.72;10456699;28;5205;-66
2023/12/26 11:20:45;;;;;;;;;;;;;;;15.55;37.46;95723.50;10458373;28;2074;-66
2023/12/26 11:25:46;;;;;;;;;;;;;;;15.55;37.44;95736.56;10445624;28;2056;-67
2023/12/26 11:30:46;;;;;;;;;;;;;;;15.55;37.27;95731.34;10441125;28;2073;-66
2023/12/26 11:35:46;;;;;;;;;;;;;;;15.55;37.49;95741.00;10461702;28;2176;-66
2023/12/26 11:40:47;;;;;;;;;;;;;;;15.53;37.47;95738.63;10457553;28;1910;-64
2023/12/26 11:45:47;;;;;;;;;;;;;;;15.54;37.24;95734.22;10443379;28;2009;-66
2023/12/26 11:50:47;;;;;;;;;;;;;;;15.55;37.42;95739.19;10459593;28;2070;-67
2023/12/26 11:55:47;;;;;;;;;;;;;;;15.55;37.29;95728.72;10448561;28;1953;-67
2023/12/26 12:00:48;;;;;;;;;;;;;;;15.54;37.28;95729.75;10465447;28;1901;-67
2023/12/26 12:05:48;;;;;;;;;;;;;;;15.55;37.26;95741.00;10450486;28;1910;-65
2023/12/26 12:11:07;;;;;;;;;;;;;;;15.54;37.33;95740.19;10459881;28;1903;-66
2023/12/26 12:16:07;;;;;;;;;;;;;;;15.55;37.35;95743.63;10466613;28;1890;-65
2023/12/26 12:21:07;;;;;;;;;;;;;;;15.54;37.32;95728.97;10458932;28;2020;-66
2023/12/26 12:26:07;;;;;;;;;;;;;;;15.55;37.17;95736.56;10459617;28;2027;-66
2023/12/26 12:31:14;;;;;;;;;;;;;;;15.56;37.10;95750.44;10455839;28;1888;-66
2023/12/26 12:36:14;;;;;;;;;;;;;;;15.55;37.23;95738.38;10457334;28;2045;-66
2023/12/26 12:41:15;;;;;;;;;;;;;;;15.55;37.24;95754.06;10447924;28;1933;-66
2023/12/26 12:46:17;;;;;;;;;;;;;;;15.55;37.29;95767.13;10449007;28;2272;-66
2023/12/26 12:51:17;;;;;;;;;;;;;;;15.55;37.26;95764.50;10459813;28;1925;-67
2023/12/26 12:56:18;;;;;;;;;;;;;;;15.55;37.26;95773.16;10454319;28;2370;-66
2023/12/26 13:01:18;;;;;;;;;;;;;;;15.55;37.34;95786.22;10442112;28;1856;-66
2023/12/26 13:06:18;;;;;;;;;;;;;;;15.57;37.29;95781.53;10445785;28;1918;-66
2023/12/26 13:11:18;;;;;;;;;;;;;;;15.57;37.26;95784.16;10458236;28;1886;-66
2023/12/26 13:16:19;;;;;;;;;;;;;;;15.58;37.08;95779.72;10455606;28;5140;-66
2023/12/26 13:21:19;;;;;;;;;;;;;;;15.57;37.34;95776.31;10458131;28;1985;-66
2023/12/26 13:26:20;;;;;;;;;;;;;;;15.59;37.42;95771.63;10452408;28;2076;-66
2023/12/26 13:31:20;;;;;;;;;;;;;;;15.59;37.38;95781.28;10463234;28;2049;-67
2023/12/26 13:36:20;;;;;;;;;;;;;;;15.59;37.46;95782.09;10460993;28;1999;-66
2023/12/26 13:41:20;;;;;;;;;;;;;;;15.60;37.32;95778.44;10455182;28;2283;-66
2023/12/26 13:46:22;;;;;;;;;;;;;;;15.59;37.35;95779.47;10460484;28;2122;-66
2023/12/26 13:51:22;;;;;;;;;;;;;;;15.58;37.51;95801.38;10433875;28;1857;-66
2023/12/26 13:56:22;;;;;;;;;;;;;;;15.60;37.40;95809.78;10455847;28;1930;-67
2023/12/26 14:01:23;;;;;;;;;;;;;;;15.58;37.52;95806.63;10459722;28;1882;-66
2023/12/26 14:06:23;;;;;;;;;;;;;;;15.58;37.52;95809.22;10450848;28;1981;-67
2023/12/26 14:11:26;;;;;;;;;;;;;;;15.57;37.58;95810.28;10463445;28;1894;-67
2023/12/26 14:16:26;;;;;;;;;;;;;;;15.56;37.53;95803.44;10455657;28;2124;-66
2023/12/26 14:21:26;;;;;;;;;;;;;;;15.57;37.65;95809.47;10461431;28;1851;-67
2023/12/26 14:26:28;;;;;;;;;;;;;;;15.56;37.57;95795.63;10466889;28;2075;-66
2023/12/26 14:31:29;;;;;;;;;;;;;;;15.59;37.58;95791.75;10465189;28;1974;-67
2023/12/26 14:36:29;;;;;;;;;;;;;;;15.61;37.57;95803.53;10455067;28;2352;-66
2023/12/26 14:41:29;;;;;;;;;;;;;;;15.65;37.71;95833.38;10461571;28;1898;-63
2023/12/26 14:46:30;;;;;;;;;;;;;;;15.72;38.35;95828.00;10459206;28;1983;-65
2023/12/26 14:51:30;;;;;;;;;;;;;;;15.84;38.37;95823.44;10458432;28;2032;-65
2023/12/26 14:56:30;;;;;;;;;;;;;;;15.96;38.42;95809.22;10456305;28;2176;-65
2023/12/26 15:01:31;;;;;;;;;;;;;;;16.21;38.20;95822.63;10455755;28;1958;-66
2023/12/26 15:06:31;;;;;;;;;;;;;;;16.39;38.08;95824.13;10454737;28;2061;-63
2023/12/26 15:11:31;;;;;;;;;;;;;;;16.46;37.70;95834.41;10448321;28;5101;-66
2023/12/26 15:16:32;;;;;;;;;;;;;;;16.66;37.32;95829.41;10442241;28;1905;-67
2023/12/26 15:21:32;;;;;;;;;;;;;;;16.86;37.18;95804.22;10455632;28;2004;-63
2023/12/26 15:26:32;;;;;;;;;;;;;;;17.06;36.96;95808.84;10457311;28;1973;-63
2023/12/26 15:31:33;;;;;;;;;;;;;;;17.23;36.78;95822.59;10467029;28;1982;-65
2023/12/26 15:36:33;;;;;;;;;;;;;;;17.10;37.04;95815.16;10468785;28;2002;-65
2023/12/26 15:41:34;;;;;;;;;;;;;;;17.14;37.29;95841.63;10471967;28;1896;-63
2023/12/26 15:52:19;;;;;;;;;;;;;;;17.75;37.04;95860.22;10464777;28;1898;-65
2023/12/26 15:57:19;;;;;;;;;;;;;;;17.85;37.22;95865.53;10463881;28;1870;-66
2023/12/26 16:02:19;;;;;;;;;;;;;;;17.99;37.84;95886.06;10465459;28;2422;-66
2023/12/26 16:07:19;;;;;;;;;;;;;;;18.08;37.92;95897.66;10461359;28;1986;-67
2023/12/26 16:12:20;;;;;;;;;;;;;;;18.29;37.88;95897.50;10447771;28;5066;-68
2023/12/26 16:17:20;;;;;;;;;;;;;;;18.40;38.12;95888.63;10469230;28;2057;-73
2023/12/26 16:22:20;;;;;;;;;;;;;;;18.57;36.78;95898.97;10463276;28;1993;-69
2023/12/26 16:27:21;;;;;;;;;;;;;;;18.76;36.65;95902.72;10458066;28;2006;-67
2023/12/26 16:32:21;;;;;;;;;;;;;;;18.98;37.51;95903.28;10467427;28;1965;-62
2023/12/26 16:37:21;;;;;;;;;;;;;;;18.88;37.21;95903.28;10465151;28;2021;-70
2023/12/26 16:42:21;;;;;;;;;;;;;;;18.92;37.82;95916.69;10464325;28;1913;-61
2023/12/26 16:47:22;;;;;;;;;;;;;;;18.95;38.79;95916.97;10465495;28;1871;-62
2023/12/26 16:52:24;;;;;;;;;;;;;;;19.23;38.29;95924.38;10463578;28;2410;-63
2023/12/26 16:57:29;;;;;;;;;;;;;;;19.39;37.76;95923.38;10467243;28;1907;-63
2023/12/26 17:02:30;;;;;;;;;;;;;;;19.58;37.93;95930.75;10468766;28;1990;-69
2023/12/26 17:07:30;;;;;;;;;;;;;;;19.74;37.28;95919.19;10451198;28;1912;-69
2023/12/26 17:12:30;;;;;;;;;;;;;;;19.90;37.39;95936.53;10466232;28;5042;-67
2023/12/26 17:17:31;;;;;;;;;;;;;;;20.05;37.42;95947.06;10465188;28;1866;-69
2023/12/26 17:22:31;;;;;;;;;;;;;;;20.18;37.36;95951.75;10473016;28;1965;-69
2023/12/26 17:27:31;;;;;;;;;;;;;;;20.25;36.69;95953.13;10447627;28;2282;-67
2023/12/26 17:32:32;;;;;;;;;;;;;;;20.29;37.23;95958.63;10466310;28;1837;-68
2023/12/26 17:37:32;;;;;;;;;;;;;;;20.39;36.02;95969.13;10439213;28;2459;-68
2023/12/26 17:42:32;;;;;;;;;;;;;;;20.36;36.60;95974.91;10459878;28;1910;-67
2023/12/26 17:47:32;;;;;;;;;;;;;;;20.42;37.60;95984.41;10464798;28;1870;-64
2023/12/26 17:52:33;;;;;;;;;;;;;;;20.46;40.93;95985.47;10466294;28;1854;-66
2023/12/26 17:57:33;;;;;;;;;;;;;;;20.48;42.34;95995.72;10464673;28;1745;-65
2023/12/26 18:02:33;;;;;;;;;;;;;;;20.54;42.86;96000.72;10471401;28;1977;-66
2023/12/26 18:07:35;;;;;;;;;;;;;;;20.61;43.67;96001.19;10481113;28;1365;-67
2023/12/26 18:12:35;;;;;;;;;;;;;;;20.64;44.93;96000.69;10464281;28;5148;-65
2023/12/26 18:17:36;;;;;;;;;;;;;;;19.95;37.78;95992.56;10462595;28;2724;-68
2023/12/26 18:22:37;;;;;;;;;;;;;;;19.03;36.94;96012.88;10466370;28;2094;-69
2023/12/26 18:27:37;;;;;;;;;;;;;;;18.43;37.20;96015.94;10467885;28;1650;-69
2023/12/26 18:32:37;;;;;;;;;;;;;;;18.92;41.20;96032.28;10462677;28;1667;-61
2023/12/26 18:37:38;;;;;;;;;;;;;;;19.14;42.98;96031.06;10450140;28;1720;-66
2023/12/26 18:42:38;;;;;;;;;;;;;;;19.36;41.67;96038.78;10453701;28;1906;-69
2023/12/26 18:47:38;;;;;;;;;;;;;;;19.42;43.12;96038.53;10467550;28;1960;-67
2023/12/26 18:52:39;;;;;;;;;;;;;;;19.64;42.76;96048.81;10458843;28;1431;-68
2023/12/26 18:57:39;;;;;;;;;;;;;;;19.76;39.94;96049.41;10466534;28;2976;-70
2023/12/26 19:02:39;;;;;;;;;;;;;;;19.85;39.55;96060.16;10466036;28;1910;-71
2023/12/26 19:07:40;;;;;;;;;;;;;;;19.94;39.16;96063.88;10460750;28;1604;-71
2023/12/26 19:12:45;;;;;;;;;;;;;;;20.02;39.07;96066.78;10468518;28;5149;-70
2023/12/26 19:17:45;;;;;;;;;;;;;;;20.12;38.70;96073.88;10469504;28;1611;-68
2023/12/26 19:22:45;;;;;;;;;;;;;;;20.21;38.66;96072.34;10468378;28;1971;-68
2023/12/26 19:27:46;;;;;;;;;;;;;;;20.31;38.63;96076.81;10465335;28;1649;-68
2023/12/26 19:32:46;;;;;;;;;;;;;;;20.38;38.81;96087.88;10462539;28;1625;-66
2023/12/26 19:37:46;;;;;;;;;;;;;;;20.42;38.45;96089.72;10467205;28;1760;-68
2023/12/26 19:42:46;;;;;;;;;;;;;;;20.53;38.96;96086.03;10469709;28;2411;-70
2023/12/26 19:47:47;;;;;;;;;;;;;;;20.59;37.88;96100.75;10474315;28;1637;-61
2023/12/26 19:52:47;;;;;;;;;;;;;;;20.63;37.98;96101.03;10465436;28;1447;-61
2023/12/26 19:57:47;;;;;;;;;;;;;;;20.67;37.79;96110.75;10473489;28;1605;-62
2023/12/26 20:02:48;;;;;;;;;;;;;;;20.73;37.67;96106.28;10469397;28;1973;-61
2023/12/26 20:07:48;;;;;;;;;;;;;;;20.79;37.68;96099.97;10470659;28;1451;-62
2023/12/26 20:12:48;;;;;;;;;;;;;;;20.84;37.41;96124.44;10472179;28;5196;-62
2023/12/26 20:17:51;;;;;;;;;;;;;;;20.90;37.63;96110.22;10466248;28;1475;-61
2023/12/26 20:22:51;;;;;;;;;;;;;;;20.96;38.46;96111.78;10463276;28;2293;-62
2023/12/26 20:27:51;;;;;;;;;;;;;;;20.91;38.66;96122.34;10447439;28;1545;-58
2023/12/26 20:32:52;;;;;;;;;;;;;;;20.83;37.08;96112.34;10463793;28;1637;-60
2023/12/26 20:37:52;;;;;;;;;;;;;;;20.82;36.54;96113.38;10461600;28;1706;-58
2023/12/26 20:42:52;;;;;;;;;;;;;;;20.73;37.21;96117.59;10460615;28;1961;-72
2023/12/26 20:47:53;;;;;;;;;;;;;;;20.72;37.75;96120.50;10456243;28;2086;-61
2023/12/26 20:52:54;;;;;;;;;;;;;;;20.62;38.30;96131.06;10458745;28;2061;-61
2023/12/26 20:57:55;;;;;;;;;;;;;;;20.45;37.94;96136.59;10458418;28;1941;-60
2023/12/26 21:02:57;;;;;;;;;;;;;;;20.32;38.09;96141.59;10458661;28;1898;-60
2023/12/26 21:07:57;;;;;;;;;;;;;;;20.18;38.39;96139.44;10464528;28;2551;-60
2023/12/26 21:12:59;;;;;;;;;;;;;;;20.10;38.38;96132.06;10457338;28;5163;-60
2023/12/26 21:17:59;;;;;;;;;;;;;;;20.06;38.06;96138.88;10456307;28;2019;-61
2023/12/26 21:23:00;;;;;;;;;;;;;;;20.13;37.78;96149.94;10455758;28;1944;-61
2023/12/26 21:28:01;;;;;;;;;;;;;;;20.22;37.95;96143.16;10458041;28;2166;-60
2023/12/26 21:33:01;;;;;;;;;;;;;;;20.28;38.45;96170.25;10463401;28;1890;-61
2023/12/26 21:38:01;;;;;;;;;;;;;;;20.34;38.34;96181.63;10451335;28;1973;-61
2023/12/26 21:43:01;;;;;;;;;;;;;;;20.38;38.37;96180.81;10454421;28;1976;-59
2023/12/26 21:48:02;;;;;;;;;;;;;;;20.42;38.79;96192.44;10453939;28;1988;-61
2023/12/26 21:53:02;;;;;;;;;;;;;;;20.45;38.53;96188.47;10456272;28;2104;-61
2023/12/26 21:58:02;;;;;;;;;;;;;;;20.48;39.24;96198.47;10463288;28;2005;-61
2023/12/26 22:03:03;;;;;;;;;;;;;;;20.52;39.11;96199.53;10449381;28;2002;-62
2023/12/26 22:08:03;;;;;;;;;;;;;;;20.54;38.77;96203.50;10453450;28;2057;-61
2023/12/26 22:13:04;;;;;;;;;;;;;;;20.57;39.19;96213.50;10457288;28;5041;-60
2023/12/26 22:18:07;;;;;;;;;;;;;;;20.58;39.42;96220.34;10458805;28;1990;-60
2023/12/26 22:23:07;;;;;;;;;;;;;;;20.60;39.28;96225.34;10458666;28;2036;-60
2023/12/26 22:28:08;;;;;;;;;;;;;;;20.61;39.32;96222.44;10456806;28;1933;-67
2023/12/26 22:33:08;;;;;;;;;;;;;;;20.61;39.40;96209.28;10462208;28;2061;-60
2023/12/26 22:38:08;;;;;;;;;;;;;;;20.60;40.04;96215.63;10456408;28;1934;-64
2023/12/26 22:43:08;;;;;;;;;;;;;;;20.62;40.02;96213.50;10454078;28;2448;-61
2023/12/26 22:48:09;;;;;;;;;;;;;;;20.61;40.00;96193.47;10453963;28;1966;-60
2023/12/26 22:53:09;;;;;;;;;;;;;;;20.62;40.00;96195.06;10456823;28;1982;-60
2023/12/26 22:58:09;;;;;;;;;;;;;;;20.62;40.53;96189.81;10445054;28;2140;-60
2023/12/26 23:03:10;;;;;;;;;;;;;;;20.63;39.38;96207.16;10459560;28;2120;-60
2023/12/26 23:08:10;;;;;;;;;;;;;;;20.62;40.08;96216.13;10458145;28;2060;-60
2023/12/26 23:13:10;;;;;;;;;;;;;;;20.59;40.12;96211.38;10459540;28;5170;-60
2023/12/26 23:18:10;;;;;;;;;;;;;;;20.59;40.19;96216.66;10454616;28;1940;-60
2023/12/26 23:23:11;;;;;;;;;;;;;;;20.57;39.64;96224.03;10459122;28;1918;-60
2023/12/26 23:28:11;;;;;;;;;;;;;;;20.61;40.23;96245.38;10463132;28;1998;-61
2023/12/26 23:33:12;;;;;;;;;;;;;;;20.61;39.68;96227.72;10464334;28;1914;-60
2023/12/26 23:38:12;;;;;;;;;;;;;;;20.58;40.79;96238.78;10456906;28;1860;-60
2023/12/26 23:43:12;;;;;;;;;;;;;;;20.58;40.03;96225.63;10457354;28;1915;-60
2023/12/26 23:48:12;;;;;;;;;;;;;;;20.59;39.90;96226.38;10457460;28;1823;-60
2023/12/26 23:53:13;;;;;;;;;;;;;;;20.57;40.21;96231.94;10452708;28;2173;-60
2023/12/26 23:58:13;;;;;;;;;;;;;;;20.58;39.92;96230.88;10464561;28;1873;-59
